Time;durP1;ratioP1;P1;durP2;ratioP2;P2;SDS_P1;SDS_P2;PMS_P1;PMS_P2;Temp;Humidity;BMP_temperature;BMP_pressure;BME280_temperature;BME280_humidity;BME280_pressure;Samples;Min_cycle;Max_cycle;Signal;HPM_P1;HPM_P2
2022/02/16 00:00:07;;;;;;;7.77;1.70;;;5.30;99.90;;;;;;5067696;28;20880;-54
2022/02/16 00:02:33;;;;;;;6.10;1.60;;;5.30;99.90;;;;;;5063786;28;20408;-54
2022/02/16 00:04:58;;;;;;;7.20;1.40;;;5.30;99.90;;;;;;5067555;28;20761;-56
2022/02/16 00:07:24;;;;;;;6.43;1.47;;;5.30;99.90;;;;;;5066626;28;21073;-55
2022/02/16 00:09:50;;;;;;;4.97;1.40;;;5.40;99.90;;;;;;5066170;28;20398;-55
2022/02/16 00:12:15;;;;;;;6.70;1.50;;;5.40;99.90;;;;;;5067000;28;20714;-54
2022/02/16 00:14:41;;;;;;;5.88;1.48;;;5.30;99.90;;;;;;5065657;28;20394;-54
2022/02/16 00:17:06;;;;;;;5.90;1.60;;;5.30;99.90;;;;;;5062264;28;20393;-58
2022/02/16 00:19:32;;;;;;;7.40;1.40;;;5.40;99.90;;;;;;5067351;28;21244;-55
2022/02/16 00:21:58;;;;;;;5.47;1.40;;;5.30;99.90;;;;;;5070498;28;20429;-55
2022/02/16 00:24:24;;;;;;;5.22;1.45;;;5.30;99.90;;;;;;5068307;28;21026;-55
2022/02/16 00:26:49;;;;;;;5.70;1.40;;;5.40;99.90;;;;;;5066643;28;20835;-54
2022/02/16 00:29:15;;;;;;;6.67;1.43;;;5.30;99.90;;;;;;5063140;28;20412;-55
2022/02/16 00:31:41;;;;;;;4.90;1.20;;;5.30;99.90;;;;;;5063341;28;20387;-54
2022/02/16 00:34:07;;;;;;;6.20;1.40;;;6.90;99.90;;;;;;5051701;28;20388;-58
2022/02/16 00:36:33;;;;;;;6.55;1.40;;;5.40;99.90;;;;;;5054200;28;20912;-55
2022/02/16 00:39:02;;;;;;;5.00;1.13;;;5.50;99.90;;;;;;5072274;28;20394;-55
2022/02/16 00:41:28;;;;;;;5.10;1.17;;;5.50;99.90;;;;;;5071514;28;20380;-54
2022/02/16 00:43:54;;;;;;;6.30;1.30;;;5.60;99.90;;;;;;5072181;28;20435;-55
2022/02/16 00:46:19;;;;;;;5.03;1.50;;;5.60;99.90;;;;;;5071343;28;20427;-55
2022/02/16 00:48:45;;;;;;;4.82;1.25;;;5.60;99.90;;;;;;5072418;28;20392;-55
2022/02/16 00:51:11;;;;;;;5.53;1.20;;;5.60;99.90;;;;;;5067607;28;20400;-55
2022/02/16 00:53:36;;;;;;;6.37;1.40;;;5.60;99.90;;;;;;5068388;28;20400;-55
2022/02/16 00:56:02;;;;;;;4.70;1.10;;;5.70;99.90;;;;;;5069710;28;20380;-55
2022/02/16 00:58:28;;;;;;;6.77;1.00;;;5.70;99.90;;;;;;5071163;28;20741;-54
2022/02/16 01:00:54;;;;;;;5.82;1.20;;;5.70;99.90;;;;;;5071866;28;20384;-54
2022/02/16 01:03:19;;;;;;;5.70;1.20;;;5.70;99.90;;;;;;5071028;28;20384;-54
2022/02/16 01:05:45;;;;;;;4.60;1.10;;;5.70;99.90;;;;;;5071184;28;20415;-54
2022/02/16 01:08:12;;;;;;;6.78;1.88;;;5.70;99.90;;;;;;5070966;28;20384;-54
2022/02/16 01:10:39;;;;;;;6.10;1.00;;;5.80;99.90;;;;;;5068860;28;20384;-54
2022/02/16 01:13:05;;;;;;;4.68;1.10;;;5.80;99.90;;;;;;5071563;28;20372;-58
2022/02/16 01:15:31;;;;;;;4.87;1.10;;;5.80;99.90;;;;;;5068574;28;20394;-54
2022/02/16 01:17:57;;;;;;;6.35;1.20;;;7.20;99.90;;;;;;5069164;28;20423;-54
2022/02/16 01:20:23;;;;;;;6.43;1.08;;;5.90;99.90;;;;;;5070753;28;20423;-54
2022/02/16 01:22:49;;;;;;;5.03;1.17;;;5.90;99.90;;;;;;5070645;28;20389;-54
2022/02/16 01:25:15;;;;;;;4.80;1.00;;;6.00;99.90;;;;;;5070631;28;20411;-54
2022/02/16 01:27:42;;;;;;;5.72;1.00;;;5.90;99.90;;;;;;5071665;28;20437;-54
2022/02/16 01:30:08;;;;;;;4.23;0.90;;;6.00;99.90;;;;;;5052852;28;20438;-58
2022/02/16 01:32:34;;;;;;;6.05;1.38;;;5.90;99.90;;;;;;5071294;28;20403;-54
2022/02/16 01:35:00;;;;;;;4.82;1.00;;;5.90;99.90;;;;;;5071218;28;20435;-54
2022/02/16 01:37:26;;;;;;;7.43;1.40;;;5.90;99.90;;;;;;5070523;28;20387;-54
2022/02/16 01:39:52;;;;;;;5.60;0.70;;;6.20;99.90;;;;;;5070939;28;20375;-54
2022/02/16 01:42:19;;;;;;;5.53;1.10;;;6.10;99.90;;;;;;5070337;28;20391;-54
2022/02/16 01:44:46;;;;;;;5.50;0.77;;;5.90;99.90;;;;;;5070876;28;20468;-55
2022/02/16 01:47:11;;;;;;;5.47;1.00;;;6.00;99.90;;;;;;5070187;28;20383;-55
2022/02/16 01:49:38;;;;;;;3.60;0.70;;;6.10;99.90;;;;;;5071011;28;20388;-55
2022/02/16 01:52:05;;;;;;;5.78;1.00;;;6.10;99.90;;;;;;5071013;28;20462;-54
2022/02/16 01:54:31;;;;;;;4.90;0.80;;;6.10;99.90;;;;;;5070019;28;20439;-54
2022/02/16 01:56:57;;;;;;;6.40;1.00;;;6.20;99.90;;;;;;5071253;28;20736;-55
2022/02/16 01:59:24;;;;;;;6.57;0.90;;;6.20;99.90;;;;;;5070080;28;20380;-55
2022/02/16 02:01:51;;;;;;;4.20;0.80;;;6.20;99.90;;;;;;5070724;28;20380;-55
2022/02/16 02:04:19;;;;;;;4.40;1.00;;;6.20;99.90;;;;;;5069750;28;20531;-55
2022/02/16 02:06:45;;;;;;;4.60;0.90;;;6.20;99.90;;;;;;5070534;28;20419;-55
2022/02/16 02:09:11;;;;;;;4.90;0.95;;;6.20;99.90;;;;;;5069791;28;20384;-56
2022/02/16 02:11:37;;;;;;;3.80;0.70;;;6.10;99.90;;;;;;5070649;28;20380;-55
2022/02/16 02:14:06;;;;;;;4.80;1.00;;;6.00;99.90;;;;;;5070592;28;20746;-55
2022/02/16 02:16:32;;;;;;;6.18;1.00;;;6.00;99.90;;;;;;5070229;28;20883;-55
2022/02/16 02:18:59;;;;;;;4.80;0.90;;;6.30;99.90;;;;;;5069950;28;20415;-54
2022/02/16 02:21:25;;;;;;;4.10;0.90;;;6.20;99.90;;;;;;5069457;28;20384;-55
2022/02/16 02:23:51;;;;;;;4.90;0.80;;;6.10;99.90;;;;;;5070140;28;20383;-54
2022/02/16 02:26:18;;;;;;;4.53;1.10;;;6.20;99.90;;;;;;5069476;28;20408;-54
2022/02/16 02:28:45;;;;;;;4.90;1.00;;;6.10;99.90;;;;;;5069111;28;20396;-56
2022/02/16 02:31:11;;;;;;;3.70;0.70;;;6.10;99.90;;;;;;5069102;28;20372;-56
2022/02/16 02:33:37;;;;;;;3.80;0.60;;;6.10;99.90;;;;;;5069676;28;20376;-55
2022/02/16 02:36:05;;;;;;;4.47;0.73;;;6.10;99.90;;;;;;5069903;28;20449;-55
2022/02/16 02:38:31;;;;;;;5.28;1.00;;;6.10;99.90;;;;;;5068879;28;20384;-55
2022/02/16 02:41:01;;;;;;;5.40;0.73;;;6.10;99.90;;;;;;5070001;28;20368;-55
2022/02/16 02:43:27;;;;;;;6.00;0.93;;;6.10;99.90;;;;;;5069176;28;20393;-55
2022/02/16 02:45:54;;;;;;;5.10;0.80;;;6.10;99.90;;;;;;5069843;28;20404;-54
2022/02/16 02:48:21;;;;;;;4.80;0.93;;;6.00;99.90;;;;;;5069128;28;20410;-55
2022/02/16 02:50:49;;;;;;;6.10;1.02;;;6.00;99.90;;;;;;5051745;28;20396;-55
2022/02/16 02:53:15;;;;;;;4.70;0.70;;;6.10;99.90;;;;;;5068753;28;20383;-54
2022/02/16 02:55:40;;;;;;;3.70;0.70;;;6.10;99.90;;;;;;5069562;28;20934;-55
2022/02/16 02:58:06;;;;;;;5.03;0.83;;;6.10;99.90;;;;;;5069475;28;20379;-55
2022/02/16 03:00:32;;;;;;;4.00;0.80;;;6.10;99.90;;;;;;5068636;28;20396;-55
2022/02/16 03:02:57;;;;;;;4.80;0.90;;;7.70;99.90;;;;;;5069765;28;20376;-55
2022/02/16 03:05:23;;;;;;;3.70;0.80;;;6.10;99.90;;;;;;5066235;28;20464;-54
2022/02/16 03:07:50;;;;;;;4.22;0.80;;;6.50;99.90;;;;;;5067300;28;20380;-54
2022/02/16 03:10:16;;;;;;;5.03;0.80;;;6.00;99.90;;;;;;5068376;28;20419;-55
2022/02/16 03:12:42;;;;;;;4.82;1.00;;;6.10;99.90;;;;;;5066951;28;20412;-55
2022/02/16 03:15:08;;;;;;;4.40;0.90;;;6.00;99.90;;;;;;5069231;28;20438;-59
2022/02/16 03:17:34;;;;;;;3.60;0.70;;;6.10;99.90;;;;;;5068460;28;20407;-55
2022/02/16 03:19:59;;;;;;;4.15;0.82;;;5.90;99.90;;;;;;5069447;28;20387;-55
2022/02/16 03:22:25;;;;;;;5.20;0.80;;;6.10;99.90;;;;;;5068356;28;20409;-55
2022/02/16 03:24:51;;;;;;;4.17;0.70;;;6.20;99.90;;;;;;5069549;28;20422;-55
2022/02/16 03:27:16;;;;;;;8.70;0.90;;;6.00;99.90;;;;;;5068539;28;20422;-55
2022/02/16 03:29:42;;;;;;;3.63;0.77;;;6.00;99.90;;;;;;5066303;28;20406;-54
2022/02/16 03:32:08;;;;;;;6.10;0.80;;;6.40;99.90;;;;;;5068822;28;20426;-57
2022/02/16 03:34:33;;;;;;;3.95;0.75;;;5.90;99.90;;;;;;5068903;28;20470;-54
2022/02/16 03:36:59;;;;;;;3.70;0.80;;;6.00;99.90;;;;;;5069588;28;20499;-55
2022/02/16 03:39:24;;;;;;;4.22;0.60;;;5.90;99.90;;;;;;5050627;28;20380;-55
2022/02/16 03:41:50;;;;;;;4.40;0.90;;;6.00;99.90;;;;;;5068986;28;20496;-56
2022/02/16 03:44:16;;;;;;;3.50;0.60;;;5.90;99.90;;;;;;5068350;28;20764;-55
2022/02/16 03:46:43;;;;;;;4.60;0.70;;;6.40;99.90;;;;;;5069269;28;20901;-55
2022/02/16 03:49:08;;;;;;;4.07;0.85;;;6.30;99.90;;;;;;5068653;28;20912;-58
2022/02/16 03:51:34;;;;;;;4.50;0.80;;;5.90;99.90;;;;;;5068475;28;20392;-55
2022/02/16 03:54:00;;;;;;;4.40;0.90;;;5.90;99.90;;;;;;5059534;28;20376;-55
2022/02/16 03:56:26;;;;;;;4.80;0.80;;;6.00;99.90;;;;;;5068216;28;20475;-55
2022/02/16 03:58:51;;;;;;;5.00;0.80;;;6.00;99.90;;;;;;5069038;28;20466;-55
2022/02/16 04:01:17;;;;;;;4.20;0.60;;;6.00;99.90;;;;;;5068764;28;20472;-54
2022/02/16 04:03:43;;;;;;;3.60;0.60;;;6.00;99.90;;;;;;5069042;28;20729;-55
2022/02/16 04:06:09;;;;;;;4.13;0.85;;;6.00;99.90;;;;;;5069200;28;20441;-59
2022/02/16 04:08:34;;;;;;;5.47;0.83;;;6.00;99.90;;;;;;5069734;28;20875;-55
2022/02/16 04:11:00;;;;;;;7.30;0.80;;;6.10;99.90;;;;;;5072766;28;20453;-55
2022/02/16 04:13:26;;;;;;;4.10;0.80;;;6.10;99.90;;;;;;5072178;28;20376;-55
2022/02/16 04:15:52;;;;;;;5.37;0.70;;;6.10;99.90;;;;;;5072592;28;20395;-54
2022/02/16 04:18:17;;;;;;;4.72;0.82;;;6.10;99.90;;;;;;5071726;28;20411;-55
2022/02/16 04:20:43;;;;;;;5.00;0.70;;;6.20;99.90;;;;;;5072753;28;20392;-55
2022/02/16 04:23:09;;;;;;;4.07;0.80;;;6.20;99.90;;;;;;5072656;28;20876;-55
2022/02/16 04:25:36;;;;;;;5.28;0.80;;;6.30;99.90;;;;;;5072054;28;20446;-55
2022/02/16 04:28:04;;;;;;;3.50;0.60;;;6.20;99.90;;;;;;5072427;28;20423;-55
2022/02/16 04:30:33;;;;;;;5.68;0.93;;;6.20;99.90;;;;;;5046279;28;20475;-55
2022/02/16 04:32:59;;;;;;;5.80;0.70;;;6.30;99.90;;;;;;5072580;28;20390;-55
2022/02/16 04:35:25;;;;;;;4.03;0.60;;;6.30;99.90;;;;;;5053809;28;20391;-55
2022/02/16 04:37:53;;;;;;;4.10;0.70;;;6.30;99.90;;;;;;5072522;28;20412;-55
2022/02/16 04:40:19;;;;;;;3.40;0.57;;;6.40;99.90;;;;;;5052366;28;20388;-55
2022/02/16 04:42:45;;;;;;;4.23;0.90;;;7.70;99.90;;;;;;5064060;28;20395;-55
2022/02/16 04:45:11;;;;;;;4.88;0.70;;;6.30;99.90;;;;;;5061021;28;20406;-58
2022/02/16 04:47:37;;;;;;;3.90;0.60;;;6.30;99.90;;;;;;5060577;28;20455;-55
2022/02/16 04:50:03;;;;;;;4.88;0.70;;;6.30;99.90;;;;;;5052225;28;20382;-56
2022/02/16 04:52:34;;;;;;;3.60;0.80;;;6.30;99.90;;;;;;5065960;28;20942;-53
2022/02/16 04:55:11;;;;;;;3.88;0.70;;;6.40;99.90;;;;;;5068449;28;20428;-55
2022/02/16 04:57:38;;;;;;;4.38;0.70;;;6.30;99.90;;;;;;5066104;28;20871;-55
2022/02/16 05:00:07;;;;;;;4.03;0.70;;;6.30;99.90;;;;;;5071868;28;20433;-56
2022/02/16 05:02:33;;;;;;;4.00;0.60;;;6.30;99.90;;;;;;5066979;28;20380;-56
2022/02/16 05:04:58;;;;;;;4.60;0.90;;;6.30;99.90;;;;;;5071962;28;20580;-56
2022/02/16 05:07:24;;;;;;;4.00;0.50;;;6.20;99.90;;;;;;5071432;28;20384;-56
2022/02/16 05:09:49;;;;;;;3.80;0.70;;;6.30;99.90;;;;;;5072263;28;20387;-55
2022/02/16 05:12:15;;;;;;;3.72;0.50;;;6.40;99.90;;;;;;5070616;28;21198;-56
2022/02/16 05:14:41;;;;;;;4.00;0.50;;;6.30;99.90;;;;;;5057278;28;20437;-55
2022/02/16 05:17:07;;;;;;;4.30;0.90;;;6.30;99.90;;;;;;5069929;28;20738;-55
2022/02/16 05:19:33;;;;;;;3.40;0.50;;;6.30;99.90;;;;;;5054487;28;20893;-56
2022/02/16 05:21:59;;;;;;;4.25;0.75;;;6.40;99.90;;;;;;5070576;28;20390;-53
2022/02/16 05:24:25;;;;;;;4.00;0.50;;;6.50;99.90;;;;;;5069910;28;20499;-53
2022/02/16 05:26:51;;;;;;;3.50;0.50;;;7.00;99.90;;;;;;5053743;28;20468;-53
2022/02/16 05:29:16;;;;;;;5.03;0.90;;;7.00;99.90;;;;;;5051091;28;20389;-56
2022/02/16 05:31:42;;;;;;;4.40;0.93;;;6.50;99.90;;;;;;5058037;28;20726;-55
2022/02/16 05:34:08;;;;;;;3.57;0.60;;;7.60;99.90;;;;;;5063781;28;20396;-56
2022/02/16 05:36:34;;;;;;;3.50;0.60;;;6.40;99.90;;;;;;5070355;28;20384;-55
2022/02/16 05:39:00;;;;;;;3.47;0.38;;;6.30;99.90;;;;;;5070553;28;20398;-55
2022/02/16 05:41:27;;;;;;;4.05;0.50;;;6.50;99.90;;;;;;5064509;28;20405;-55
2022/02/16 05:43:53;;;;;;;4.07;0.60;;;6.40;99.90;;;;;;5063847;28;20464;-58
2022/02/16 05:46:19;;;;;;;3.60;0.40;;;6.40;99.90;;;;;;5056813;28;20914;-56
2022/02/16 05:48:45;;;;;;;3.40;0.50;;;6.40;99.90;;;;;;5065679;28;20429;-56
2022/02/16 05:51:10;;;;;;;3.47;0.50;;;6.40;99.90;;;;;;5067851;28;20526;-55
2022/02/16 05:53:36;;;;;;;3.83;0.60;;;6.40;99.90;;;;;;5069690;28;20438;-56
2022/02/16 05:56:02;;;;;;;3.80;0.50;;;6.50;99.90;;;;;;5052916;28;20881;-54
2022/02/16 05:58:27;;;;;;;3.80;0.60;;;6.60;99.90;;;;;;5066184;28;20877;-56
2022/02/16 06:00:53;;;;;;;4.97;0.70;;;6.50;99.90;;;;;;5048169;28;20548;-56
2022/02/16 06:03:19;;;;;;;4.25;0.50;;;6.50;99.90;;;;;;5066554;28;20963;-55
2022/02/16 06:05:44;;;;;;;4.50;0.60;;;6.60;99.90;;;;;;5070498;28;20400;-56
2022/02/16 06:08:10;;;;;;;3.80;0.80;;;6.60;99.90;;;;;;5070586;28;20589;-56
2022/02/16 06:10:36;;;;;;;4.10;0.80;;;6.50;99.90;;;;;;5069722;28;20388;-53
2022/02/16 06:13:02;;;;;;;3.50;0.52;;;7.00;99.90;;;;;;5068410;28;20452;-54
2022/02/16 06:15:28;;;;;;;3.60;0.50;;;6.60;99.90;;;;;;5065371;28;20411;-56
2022/02/16 06:17:54;;;;;;;3.53;0.50;;;6.60;99.90;;;;;;5069949;28;20396;-54
2022/02/16 06:20:20;;;;;;;3.47;0.50;;;6.60;99.90;;;;;;5069447;28;20907;-53
2022/02/16 06:22:46;;;;;;;3.20;0.40;;;6.60;99.90;;;;;;5070197;28;20379;-53
2022/02/16 06:25:12;;;;;;;3.80;0.50;;;6.60;99.90;;;;;;5070160;28;21423;-56
2022/02/16 06:27:39;;;;;;;3.67;0.43;;;5.70;99.90;;;;;;5067844;28;21272;-55
2022/02/16 06:30:07;;;;;;;4.90;0.60;;;8.20;99.90;;;;;;5062567;28;20399;-57
2022/02/16 06:32:33;;;;;;;3.40;0.60;;;6.70;99.90;;;;;;5067037;28;20412;-55
2022/02/16 06:34:59;;;;;;;3.40;0.50;;;6.70;99.90;;;;;;5049873;28;20408;-53
2022/02/16 06:37:25;;;;;;;4.70;0.60;;;6.80;99.90;;;;;;5070450;28;20744;-52
2022/02/16 06:39:51;;;;;;;3.40;0.50;;;6.70;99.90;;;;;;5071681;28;20509;-53
2022/02/16 06:42:17;;;;;;;3.58;0.77;;;6.60;99.90;;;;;;5065356;28;20395;-58
2022/02/16 06:44:42;;;;;;;4.00;0.70;;;6.60;99.90;;;;;;5068190;28;20422;-55
2022/02/16 06:47:08;;;;;;;4.95;0.40;;;7.30;99.90;;;;;;5074256;28;20386;-55
2022/02/16 06:49:34;;;;;;;4.10;0.45;;;6.70;99.90;;;;;;5067305;28;20663;-55
2022/02/16 06:52:00;;;;;;;3.47;0.47;;;6.70;99.90;;;;;;5070462;28;20427;-55
2022/02/16 06:54:26;;;;;;;3.30;0.50;;;6.80;99.90;;;;;;5064496;28;20453;-55
2022/02/16 06:56:51;;;;;;;4.10;0.60;;;6.90;99.90;;;;;;5057856;28;20844;-53
2022/02/16 06:59:17;;;;;;;3.75;0.50;;;7.00;99.90;;;;;;5080520;28;20387;-52
2022/02/16 07:01:43;;;;;;;5.70;0.60;;;6.90;99.90;;;;;;5066182;28;20869;-53
2022/02/16 07:04:08;;;;;;;3.50;0.50;;;6.80;99.90;;;;;;5066042;28;20923;-57
2022/02/16 07:06:34;;;;;;;4.10;0.70;;;6.90;99.90;;;;;;5065059;28;20434;-52
2022/02/16 07:09:00;;;;;;;5.38;0.60;;;6.80;99.90;;;;;;5069481;28;20459;-53
2022/02/16 07:11:25;;;;;;;4.20;0.57;;;6.90;99.90;;;;;;5064801;28;20478;-53
2022/02/16 07:13:51;;;;;;;3.67;0.50;;;6.80;99.90;;;;;;5069935;28;20411;-52
2022/02/16 07:16:16;;;;;;;3.80;0.60;;;6.80;99.90;;;;;;5069007;28;20372;-56
2022/02/16 07:18:43;;;;;;;3.50;0.40;;;6.80;99.90;;;;;;5068680;28;20718;-56
2022/02/16 07:21:09;;;;;;;3.50;0.60;;;6.70;99.90;;;;;;5049235;28;20488;-55
2022/02/16 07:23:36;;;;;;;3.28;0.50;;;6.70;99.90;;;;;;5064888;28;20404;-55
2022/02/16 07:26:02;;;;;;;3.45;0.60;;;6.70;99.90;;;;;;5069212;28;20442;-55
2022/02/16 07:28:28;;;;;;;3.80;0.70;;;7.50;99.90;;;;;;5068797;28;20384;-52
2022/02/16 07:30:53;;;;;;;4.03;1.00;;;6.80;99.90;;;;;;5069792;28;20471;-53
2022/02/16 07:33:19;;;;;;;4.40;0.70;;;6.70;99.90;;;;;;5068474;28;20391;-52
2022/02/16 07:35:45;;;;;;;3.50;0.60;;;6.70;99.90;;;;;;5069263;28;20388;-52
2022/02/16 07:38:10;;;;;;;3.40;0.60;;;6.70;99.90;;;;;;5069722;28;20402;-52
2022/02/16 07:40:36;;;;;;;3.35;0.50;;;6.70;99.90;;;;;;5068691;28;20558;-52
2022/02/16 07:43:02;;;;;;;3.97;0.80;;;6.70;99.90;;;;;;5071431;28;20460;-53
2022/02/16 07:45:28;;;;;;;3.45;0.60;;;6.70;99.90;;;;;;5073026;28;20403;-52
2022/02/16 07:47:53;;;;;;;4.50;0.60;;;8.00;99.90;;;;;;5073723;28;20457;-52
2022/02/16 07:50:19;;;;;;;3.30;0.60;;;6.70;99.90;;;;;;5072573;28;20391;-53
2022/02/16 07:52:46;;;;;;;4.07;0.80;;;6.70;99.90;;;;;;5073636;28;20441;-53
2022/02/16 07:55:12;;;;;;;3.50;0.60;;;6.70;99.90;;;;;;5073142;28;20394;-53
2022/02/16 07:57:38;;;;;;;3.50;0.60;;;6.70;99.90;;;;;;5072541;28;20376;-53
2022/02/16 08:00:06;;;;;;;4.40;0.88;;;6.80;99.90;;;;;;5073532;28;20763;-52
2022/02/16 08:02:32;;;;;;;5.00;0.90;;;6.80;99.90;;;;;;5072535;28;20395;-53
2022/02/16 08:04:58;;;;;;;4.10;0.70;;;6.90;99.90;;;;;;5073013;28;20787;-52
2022/02/16 08:07:24;;;;;;;4.18;0.60;;;6.90;99.90;;;;;;5072308;28;20734;-53
2022/02/16 08:09:50;;;;;;;4.00;0.65;;;6.90;99.90;;;;;;5073118;28;20379;-54
2022/02/16 08:12:16;;;;;;;3.30;0.60;;;6.80;99.90;;;;;;5072823;28;21078;-57
2022/02/16 08:14:41;;;;;;;3.67;0.60;;;6.90;99.90;;;;;;5073157;28;20799;-52
2022/02/16 08:17:08;;;;;;;4.10;0.60;;;6.90;99.90;;;;;;5072986;28;20379;-53
2022/02/16 08:19:34;;;;;;;3.60;0.60;;;6.90;99.90;;;;;;5054040;28;20761;-52
2022/02/16 08:22:00;;;;;;;4.40;0.50;;;6.90;99.90;;;;;;5072878;28;20390;-53
2022/02/16 08:24:26;;;;;;;3.17;0.50;;;6.90;99.90;;;;;;5072072;28;20788;-52
2022/02/16 08:26:53;;;;;;;3.10;0.50;;;6.80;99.90;;;;;;5072934;28;20795;-53
2022/02/16 08:29:24;;;;;;;3.60;0.70;;;6.80;99.90;;;;;;5071981;28;20398;-56
2022/02/16 08:31:50;;;;;;;3.83;0.70;;;6.80;99.90;;;;;;5072426;28;20423;-52
2022/02/16 08:34:16;;;;;;;4.30;0.80;;;6.70;99.90;;;;;;5072396;28;20399;-57
2022/02/16 08:36:42;;;;;;;5.60;0.80;;;6.70;99.90;;;;;;5071771;28;20401;-53
2022/02/16 08:39:08;;;;;;;4.40;0.60;;;7.50;99.90;;;;;;5072886;28;20397;-53
2022/02/16 08:41:34;;;;;;;4.23;0.73;;;6.70;99.90;;;;;;5071787;28;20376;-53
2022/02/16 08:44:00;;;;;;;3.43;0.70;;;6.80;99.90;;;;;;5072489;28;20906;-53
2022/02/16 08:46:27;;;;;;;3.30;0.70;;;6.80;99.90;;;;;;5071690;28;20368;-53
2022/02/16 08:48:52;;;;;;;6.70;0.90;;;6.70;99.90;;;;;;5072039;28;20404;-53
2022/02/16 08:51:18;;;;;;;5.10;0.70;;;6.70;99.90;;;;;;5072178;28;20533;-57
2022/02/16 08:53:44;;;;;;;4.00;0.70;;;6.70;99.90;;;;;;5071271;28;20380;-53
2022/02/16 08:56:09;;;;;;;4.60;0.70;;;7.50;99.90;;;;;;5072146;28;20391;-53
2022/02/16 08:58:35;;;;;;;4.03;0.65;;;6.70;99.90;;;;;;5071462;28;20640;-53
2022/02/16 09:01:00;;;;;;;5.60;0.70;;;6.70;99.90;;;;;;5071915;28;20388;-53
2022/02/16 09:03:28;;;;;;;3.40;0.70;;;7.30;99.90;;;;;;5071118;28;20387;-53
2022/02/16 09:05:54;;;;;;;4.20;0.70;;;6.80;99.90;;;;;;5072407;28;20412;-53
2022/02/16 09:08:20;;;;;;;3.40;0.70;;;6.70;99.90;;;;;;5071083;28;20390;-57
2022/02/16 09:10:46;;;;;;;4.60;0.60;;;6.80;99.90;;;;;;5071902;28;20606;-53
2022/02/16 09:13:12;;;;;;;3.30;0.70;;;6.80;99.90;;;;;;5072053;28;20386;-53
2022/02/16 09:15:37;;;;;;;3.90;0.80;;;6.80;99.90;;;;;;5070036;28;20980;-55
2022/02/16 09:18:05;;;;;;;3.63;0.70;;;6.80;99.90;;;;;;5071484;28;20431;-55
2022/02/16 09:20:32;;;;;;;3.90;1.15;;;6.90;99.90;;;;;;5071339;28;20429;-54
2022/02/16 09:22:57;;;;;;;3.70;0.70;;;7.70;99.90;;;;;;5071508;28;20939;-54
2022/02/16 09:25:23;;;;;;;3.90;0.70;;;6.90;99.90;;;;;;5070727;28;20486;-54
2022/02/16 09:27:49;;;;;;;4.35;0.80;;;7.00;99.90;;;;;;5071975;28;20463;-54
2022/02/16 09:30:14;;;;;;;3.33;0.80;;;7.00;99.90;;;;;;5071409;28;20380;-54
2022/02/16 09:32:40;;;;;;;3.75;0.88;;;7.00;99.90;;;;;;5070730;28;20706;-54
2022/02/16 09:35:07;;;;;;;3.50;0.80;;;7.10;99.90;;;;;;5071690;28;20433;-54
2022/02/16 09:37:33;;;;;;;4.23;0.90;;;7.20;99.90;;;;;;5070136;28;20376;-54
2022/02/16 09:39:58;;;;;;;3.17;0.73;;;7.20;99.90;;;;;;5069996;28;20930;-54
2022/02/16 09:42:24;;;;;;;3.40;0.70;;;7.20;99.90;;;;;;5070476;28;20380;-54
2022/02/16 09:45:00;;;;;;;3.58;0.70;;;7.50;99.90;;;;;;5071085;28;20928;-54
2022/02/16 09:47:27;;;;;;;6.40;2.85;;;7.30;99.90;;;;;;5070309;28;20442;-54
2022/02/16 09:49:53;;;;;;;4.20;1.20;;;7.40;99.90;;;;;;5070797;28;20776;-54
2022/02/16 09:52:22;;;;;;;4.57;0.90;;;7.40;99.90;;;;;;5070543;28;20414;-57
2022/02/16 09:54:48;;;;;;;4.70;1.05;;;7.40;99.90;;;;;;5070808;28;20806;-53
2022/02/16 09:57:14;;;;;;;5.10;0.90;;;7.50;99.90;;;;;;5071043;28;20757;-53
2022/02/16 09:59:40;;;;;;;3.33;0.70;;;7.50;99.90;;;;;;5069953;28;21153;-54
2022/02/16 10:02:12;;;;;;;4.40;0.98;;;7.60;99.90;;;;;;5069671;28;20417;-54
2022/02/16 10:04:41;;;;;;;3.40;0.73;;;7.70;99.90;;;;;;5070041;28;20551;-54
2022/02/16 10:07:26;;;;;;;3.50;0.80;;;7.80;99.90;;;;;;5070716;28;20899;-54
2022/02/16 10:09:52;;;;;;;4.00;0.70;;;7.70;99.90;;;;;;5070708;28;20379;-54
2022/02/16 10:12:18;;;;;;;3.28;0.60;;;7.90;99.90;;;;;;5070229;28;20384;-58
2022/02/16 10:14:45;;;;;;;4.43;1.00;;;7.90;99.90;;;;;;5070498;28;20385;-55
2022/02/16 10:17:23;;;;;;;5.00;0.80;;;8.10;99.90;;;;;;5070711;28;20375;-54
2022/02/16 10:19:54;;;;;;;4.25;0.90;;;8.10;99.90;;;;;;5070285;28;20415;-54
2022/02/16 10:22:28;;;;;;;3.45;0.82;;;8.00;99.90;;;;;;5069671;28;20383;-58
2022/02/16 10:25:08;;;;;;;3.80;1.20;;;8.10;99.90;;;;;;5070227;28;20415;-54
2022/02/16 10:27:34;;;;;;;5.47;2.13;;;8.10;99.90;;;;;;5069576;28;20375;-57
2022/02/16 10:30:11;;;;;;;3.93;0.80;;;8.20;99.90;;;;;;5070591;28;20703;-54
2022/02/16 10:32:36;;;;;;;3.30;0.60;;;8.10;99.90;;;;;;5069708;28;20371;-54
2022/02/16 10:35:02;;;;;;;4.30;0.80;;;8.10;99.90;;;;;;5070346;28;20376;-53
2022/02/16 10:37:40;;;;;;;4.28;0.90;;;8.20;99.90;;;;;;5069488;28;20391;-54
2022/02/16 10:40:10;;;;;;;3.90;0.80;;;8.30;99.90;;;;;;5070220;28;20941;-53
2022/02/16 10:42:55;;;;;;;3.80;0.70;;;8.20;99.90;;;;;;5069168;28;20403;-54
2022/02/16 10:45:22;;;;;;;3.70;0.60;;;8.30;99.90;;;;;;5069578;28;20408;-58
2022/02/16 10:48:01;;;;;;;3.50;0.77;;;8.30;99.90;;;;;;5070030;28;20442;-54
2022/02/16 10:50:30;;;;;;;3.55;0.70;;;8.20;99.90;;;;;;5069338;28;20400;-53
2022/02/16 10:53:02;;;;;;;3.40;0.60;;;8.20;99.90;;;;;;5070065;28;20380;-54
2022/02/16 10:55:37;;;;;;;4.00;0.90;;;8.40;99.90;;;;;;5069455;28;20383;-54
2022/02/16 10:58:04;;;;;;;6.18;2.25;;;8.50;99.90;;;;;;5070044;28;20454;-54
2022/02/16 11:00:34;;;;;;;3.97;1.25;;;8.60;99.90;;;;;;5069415;28;20399;-54
2022/02/16 11:03:02;;;;;;;4.97;1.77;;;8.80;99.90;;;;;;5069823;28;20496;-54
2022/02/16 11:05:29;;;;;;;4.30;1.00;;;10.30;99.90;;;;;;5069078;28;20415;-54
2022/02/16 11:07:59;;;;;;;5.35;2.17;;;9.10;99.90;;;;;;5069888;28;20857;-54
2022/02/16 11:10:27;;;;;;;4.78;1.92;;;9.30;99.90;;;;;;5068953;28;20376;-54
2022/02/16 11:12:54;;;;;;;4.10;1.10;;;9.30;99.90;;;;;;5051942;28;20387;-54
2022/02/16 11:15:21;;;;;;;4.18;1.20;;;9.20;99.90;;;;;;5069393;28;20412;-57
2022/02/16 11:17:47;;;;;;;3.50;0.60;;;9.30;99.90;;;;;;5069001;28;20509;-55
2022/02/16 11:20:19;;;;;;;3.60;0.70;;;9.30;99.90;;;;;;5069681;28;20513;-54
2022/02/16 11:22:51;;;;;;;3.27;0.57;;;9.40;99.90;;;;;;5069081;28;20387;-54
2022/02/16 11:25:47;;;;;;;3.40;0.70;;;9.40;99.90;;;;;;5068955;28;20494;-54
2022/02/16 11:28:13;;;;;;;4.70;0.90;;;9.40;99.90;;;;;;5052810;28;20392;-54
2022/02/16 11:30:41;;;;;;;3.60;0.70;;;9.50;99.90;;;;;;5068659;28;20376;-54
2022/02/16 11:33:25;;;;;;;3.75;0.93;;;9.40;99.90;;;;;;5069413;28;20426;-54
2022/02/16 11:36:01;;;;;;;3.70;0.80;;;9.50;99.90;;;;;;5069607;28;20379;-54
2022/02/16 11:38:46;;;;;;;4.60;0.93;;;9.50;99.90;;;;;;5068591;28;20872;-54
2022/02/16 11:41:23;;;;;;;4.23;0.97;;;9.50;99.90;;;;;;5069399;28;20392;-54
2022/02/16 11:43:57;;;;;;;6.50;0.70;;;9.70;99.90;;;;;;5069304;28;21153;-54
2022/02/16 11:46:44;;;;;;;3.42;0.57;;;9.80;99.90;;;;;;5068449;28;20421;-55
2022/02/16 11:49:30;;;;;;;3.60;0.80;;;9.80;99.90;;;;;;5051041;28;21264;-53
2022/02/16 11:51:57;;;;;;;4.15;0.70;;;9.80;99.90;;;;;;5067754;28;20399;-54
2022/02/16 11:54:47;;;;;;;3.60;0.60;;;9.90;99.90;;;;;;5068525;28;20395;-55
2022/02/16 11:57:31;;;;;;;4.13;0.80;;;9.90;99.90;;;;;;5069229;28;20375;-55
2022/02/16 11:59:58;;;;;;;3.40;0.50;;;10.10;99.90;;;;;;5069238;28;20452;-54
2022/02/16 12:02:24;;;;;;;3.40;0.50;;;10.10;99.90;;;;;;5068332;28;20407;-54
2022/02/16 12:04:59;;;;;;;3.30;0.40;;;10.20;99.90;;;;;;5069322;28;20872;-54
2022/02/16 12:07:30;;;;;;;3.60;0.40;;;10.20;99.90;;;;;;5068485;28;20848;-54
2022/02/16 12:10:14;;;;;;;3.30;0.40;;;10.30;99.90;;;;;;5068993;28;20414;-54
2022/02/16 12:12:41;;;;;;;4.60;0.40;;;10.10;99.90;;;;;;5068378;28;20460;-54
2022/02/16 12:15:08;;;;;;;4.00;0.40;;;10.10;99.90;;;;;;5069104;28;20392;-54
2022/02/16 12:17:34;;;;;;;3.58;0.40;;;9.90;99.90;;;;;;5068186;28;20427;-55
2022/02/16 12:20:01;;;;;;;3.00;0.22;;;9.90;99.90;;;;;;5068788;28;20430;-55
2022/02/16 12:22:27;;;;;;;3.20;0.30;;;9.80;99.90;;;;;;5068463;28;20860;-54
2022/02/16 12:24:53;;;;;;;4.07;0.38;;;9.80;99.90;;;;;;5068841;28;20402;-54
2022/02/16 12:27:22;;;;;;;3.27;0.40;;;9.90;99.90;;;;;;5068718;28;20387;-54
2022/02/16 12:29:48;;;;;;;4.23;0.40;;;9.80;99.90;;;;;;5070079;28;20420;-54
2022/02/16 12:32:19;;;;;;;3.60;0.40;;;9.70;99.90;;;;;;5072705;28;20391;-54
2022/02/16 12:34:46;;;;;;;2.90;0.30;;;9.70;99.90;;;;;;5071826;28;20394;-54
2022/02/16 12:37:15;;;;;;;2.93;0.30;;;9.80;99.90;;;;;;5072825;28;20857;-54
2022/02/16 12:39:51;;;;;;;2.80;0.30;;;9.70;99.90;;;;;;5071394;28;21011;-54
2022/02/16 12:42:17;;;;;;;4.65;0.50;;;9.70;99.90;;;;;;5072548;28;20399;-54
2022/02/16 12:44:43;;;;;;;4.00;0.40;;;9.80;99.90;;;;;;5071739;28;20438;-54
2022/02/16 12:47:10;;;;;;;4.10;0.40;;;9.80;99.90;;;;;;5072428;28;20398;-55
2022/02/16 12:49:40;;;;;;;4.20;0.50;;;9.90;99.90;;;;;;5071571;28;20383;-54
2022/02/16 12:52:06;;;;;;;3.05;0.40;;;9.90;99.90;;;;;;5072696;28;20395;-54
2022/02/16 12:54:34;;;;;;;3.60;0.40;;;9.90;99.90;;;;;;5071503;28;20861;-54
2022/02/16 12:57:03;;;;;;;3.00;0.32;;;9.90;99.90;;;;;;5072135;28;20902;-54